createdAt,value
2017-02-05T00:01:02.441Z,6.67
2017-02-05T00:02:13.192Z,6.78
2017-02-05T00:03:23.552Z,6.75
2017-02-05T00:04:34.290Z,6.7
2017-02-05T00:05:45.050Z,6.7
2017-02-05T00:06:55.412Z,6.54
2017-02-05T00:08:05.785Z,6.62
2017-02-05T00:09:16.528Z,6.57
2017-02-05T00:10:27.286Z,6.51
2017-02-05T00:11:38.062Z,6.44
2017-02-05T00:12:48.407Z,6.44
2017-02-05T00:13:59.192Z,6.46
2017-02-05T00:15:09.165Z,6.44
2017-02-05T00:16:19.127Z,6.33
2017-02-05T00:17:29.078Z,6.37
2017-02-05T00:18:39.827Z,6.39
2017-02-05T00:19:50.569Z,6.37
2017-02-05T00:21:01.325Z,6.4
2017-02-05T00:22:11.675Z,6.44
2017-02-05T00:23:22.433Z,6.34
2017-02-05T00:24:33.195Z,6.47
2017-02-05T00:25:43.968Z,6.37
2017-02-05T00:26:54.703Z,6.43
2017-02-05T00:28:05.061Z,6.46
2017-02-05T00:29:15.795Z,6.4
2017-02-05T00:30:26.553Z,6.46
2017-02-05T00:31:36.902Z,6.49
2017-02-05T00:32:47.673Z,6.44
2017-02-05T00:33:58.060Z,6.52
2017-02-05T00:35:08.805Z,6.54
2017-02-05T00:36:19.551Z,6.42
2017-02-05T00:37:29.523Z,6.47
2017-02-05T00:38:40.301Z,6.57
2017-02-05T00:39:51.050Z,6.51
2017-02-05T00:41:01.789Z,6.51
2017-02-05T00:42:12.147Z,6.61
2017-02-05T00:43:22.928Z,6.55
2017-02-05T00:44:32.893Z,6.6
2017-02-05T00:45:42.836Z,6.55
2017-02-05T00:46:52.402Z,6.57
2017-02-05T00:48:02.354Z,6.55
2017-02-05T00:49:13.101Z,6.47
2017-02-05T00:50:23.455Z,6.51
2017-02-05T00:51:33.811Z,6.47
2017-02-05T00:52:43.789Z,6.52
2017-02-05T00:53:54.559Z,6.55
2017-02-05T00:55:04.525Z,6.55
2017-02-05T00:56:14.905Z,6.49
2017-02-05T00:57:25.669Z,6.51
2017-02-05T00:58:36.036Z,6.57
2017-02-05T00:59:46.381Z,6.52
2017-02-05T01:00:56.717Z,6.51
2017-02-05T01:02:07.477Z,6.54
2017-02-05T01:03:18.221Z,6.6
2017-02-05T01:04:28.558Z,6.57
2017-02-05T01:05:38.919Z,6.52
2017-02-05T01:06:48.870Z,6.51
2017-02-05T01:07:59.617Z,6.49
2017-02-05T01:09:09.989Z,6.49
2017-02-05T01:10:20.345Z,6.43
2017-02-05T01:11:30.359Z,6.46
2017-02-05T01:12:40.721Z,6.46
2017-02-05T01:13:51.080Z,6.46
2017-02-05T01:15:01.050Z,6.42
2017-02-05T01:16:11.801Z,6.42
2017-02-05T01:17:22.554Z,6.51
2017-02-05T01:18:31.725Z,6.4
2017-02-05T01:19:41.280Z,6.39
2017-02-05T01:20:51.671Z,6.33
2017-02-05T01:22:02.432Z,6.34
2017-02-05T01:23:12.788Z,6.37
2017-02-05T01:24:23.528Z,6.28
2017-02-05T01:25:33.499Z,6.39
2017-02-05T01:26:43.854Z,6.29
2017-02-05T01:27:54.205Z,6.28
2017-02-05T01:29:04.560Z,6.34
2017-02-05T01:30:14.123Z,6.31
2017-02-05T01:31:24.467Z,6.37
2017-02-05T01:32:34.815Z,6.36
2017-02-05T01:33:45.571Z,6.31
2017-02-05T01:34:55.925Z,6.28
2017-02-05T01:36:06.663Z,6.26
2017-02-05T01:37:17.407Z,6.31
2017-02-05T01:38:27.760Z,6.2
2017-02-05T01:39:37.725Z,6.25
2017-02-05T01:40:48.489Z,6.2
2017-02-05T01:41:59.237Z,6.28
2017-02-05T01:43:09.980Z,6.18
2017-02-05T01:44:20.718Z,6.17
2017-02-05T01:45:30.675Z,6.14
2017-02-05T01:46:41.424Z,6.21
2017-02-05T01:47:51.789Z,6.29
2017-02-05T01:49:02.177Z,6.2
2017-02-05T01:50:12.919Z,6.33
2017-02-05T01:51:23.275Z,6.25
2017-02-05T01:52:34.022Z,6.33
2017-02-05T01:53:44.379Z,6.36
2017-02-05T01:54:54.737Z,6.31
2017-02-05T01:56:04.697Z,6.39
2017-02-05T01:57:15.460Z,6.33
2017-02-05T01:58:25.807Z,6.39
2017-02-05T01:59:36.155Z,6.29
2017-02-05T02:00:46.517Z,6.36
2017-02-05T02:01:56.867Z,6.36
2017-02-05T02:03:07.613Z,6.29
2017-02-05T02:04:17.963Z,6.2
2017-02-05T02:05:28.716Z,6.26
2017-02-05T02:06:39.063Z,6.26
2017-02-05T02:07:49.815Z,6.31
2017-02-05T02:09:00.562Z,6.29
2017-02-05T02:10:10.518Z,6.34
2017-02-05T02:11:20.089Z,6.33
2017-02-05T02:12:30.844Z,6.25
2017-02-05T02:13:41.192Z,6.31
2017-02-05T02:14:51.953Z,6.33
2017-02-05T02:16:02.697Z,6.33
2017-02-05T02:17:13.446Z,6.37
2017-02-05T02:18:24.430Z,6.29
2017-02-05T02:19:34.772Z,6.25
2017-02-05T02:20:45.166Z,6.33
2017-02-05T02:21:55.919Z,6.37
2017-02-05T02:23:06.292Z,6.28
2017-02-05T02:24:17.051Z,6.26
2017-02-05T02:25:26.620Z,6.25
2017-02-05T02:26:36.973Z,6.33
2017-02-05T02:27:47.324Z,6.33
2017-02-05T02:28:57.680Z,6.25
2017-02-05T02:30:08.051Z,6.25
2017-02-05T02:31:18.811Z,6.26
2017-02-05T02:32:28.399Z,6.33
2017-02-05T02:33:38.760Z,6.28
2017-02-05T02:34:49.127Z,6.24
2017-02-05T02:35:59.491Z,6.21
2017-02-05T02:37:10.242Z,6.18
2017-02-05T02:38:20.983Z,6.2
2017-02-05T02:39:30.942Z,6.15
2017-02-05T02:40:40.902Z,6.2
2017-02-05T02:41:51.255Z,6.25
2017-02-05T02:43:01.995Z,6.26
2017-02-05T02:44:12.743Z,6.25
2017-02-05T02:45:23.482Z,6.29
2017-02-05T02:46:34.216Z,6.34
2017-02-05T02:47:44.181Z,6.25
2017-02-05T02:48:54.922Z,6.26
2017-02-05T02:50:04.876Z,6.34
2017-02-05T02:51:15.232Z,6.26
2017-02-05T02:52:25.979Z,6.29
2017-02-05T02:53:36.323Z,6.26
2017-02-05T02:54:47.073Z,6.29
2017-02-05T02:55:57.804Z,6.21
2017-02-05T02:57:08.579Z,6.24
2017-02-05T02:58:18.949Z,6.15
2017-02-05T02:59:29.690Z,6.18
2017-02-05T03:00:39.253Z,6.17
2017-02-05T03:32:35.715Z,4.33
2017-02-05T03:33:46.480Z,4.33
2017-02-05T03:34:56.461Z,4.36
2017-02-05T03:36:06.807Z,4.58
2017-02-05T03:37:17.148Z,4.71
2017-02-05T03:38:27.509Z,4.83
2017-02-05T03:39:37.855Z,4.97
2017-02-05T03:40:48.212Z,5.15
2017-02-05T03:41:58.564Z,5.34
2017-02-05T03:43:08.514Z,5.51
2017-02-05T03:44:18.462Z,5.69
2017-02-05T03:45:28.804Z,5.91
2017-02-05T03:46:39.381Z,6.02
2017-02-05T03:47:49.762Z,6.21
2017-02-05T03:49:00.119Z,6.43
2017-02-05T03:50:10.089Z,6.64
2017-02-05T03:51:20.894Z,6.83
2017-02-05T03:52:31.637Z,7.04
2017-02-05T03:53:42.392Z,7.16
2017-02-05T03:54:53.160Z,7.34
2017-02-05T03:56:03.513Z,7.49
2017-02-05T03:57:13.896Z,7.54
2017-02-05T03:58:24.249Z,7.64
2017-02-05T03:59:34.200Z,7.74
2017-02-05T04:00:44.565Z,7.91
2017-02-05T04:01:55.313Z,7.85
2017-02-05T04:03:06.070Z,8.04
2017-02-05T04:04:16.861Z,8.09
2017-02-05T04:05:26.821Z,8.09
2017-02-05T04:06:37.556Z,8.24
2017-02-05T04:07:48.323Z,8.28
2017-02-05T04:08:59.063Z,8.29
2017-02-05T04:10:09.821Z,8.35
2017-02-05T04:11:20.164Z,8.47
2017-02-05T04:12:30.924Z,8.49
2017-02-05T04:13:40.888Z,8.49
2017-02-05T04:14:51.237Z,8.62
2017-02-05T04:16:01.987Z,8.57
2017-02-05T04:17:12.739Z,8.62
2017-02-05T04:18:23.089Z,8.76
2017-02-05T04:19:33.852Z,8.71
2017-02-05T04:20:43.806Z,8.79
2017-02-05T04:21:54.558Z,8.77
2017-02-05T04:23:05.301Z,8.8
2017-02-05T04:24:15.682Z,8.85
2017-02-05T04:25:25.232Z,8.82
2017-02-05T04:26:35.987Z,8.94
2017-02-05T04:27:46.728Z,8.94
2017-02-05T04:28:57.478Z,8.95
2017-02-05T04:30:07.031Z,8.94
2017-02-05T04:31:17.026Z,8.98
2017-02-05T04:32:27.386Z,8.95
2017-02-05T04:33:37.736Z,8.89
2017-02-05T04:34:48.110Z,8.98
2017-02-05T04:35:58.864Z,9.04
2017-02-05T04:37:09.604Z,9.04
2017-02-05T04:38:19.560Z,9.08
2017-02-05T04:39:29.911Z,9.05
2017-02-05T04:40:40.661Z,9.12
2017-02-05T04:41:50.623Z,9.11
2017-02-05T04:43:01.595Z,9.19
2017-02-05T04:44:12.355Z,9.12
2017-02-05T04:45:23.099Z,9.19
2017-02-05T04:46:33.846Z,9.16
2017-02-05T04:47:44.612Z,9.21
2017-02-05T04:48:55.354Z,9.21
2017-02-05T04:50:05.529Z,9.21
2017-02-05T04:51:16.270Z,9.21
2017-02-05T04:52:26.227Z,9.24
2017-02-05T04:53:36.570Z,9.27
2017-02-05T04:54:46.935Z,9.27
2017-02-05T04:55:57.677Z,9.34
2017-02-05T04:57:08.436Z,9.29
2017-02-05T04:58:19.191Z,9.35
2017-02-05T04:59:29.549Z,9.32
2017-02-05T05:00:39.502Z,9.29
2017-02-05T05:01:49.904Z,9.27
2017-02-05T05:03:00.245Z,9.42
2017-02-05T05:04:10.604Z,9.44
2017-02-05T05:05:20.967Z,9.44
2017-02-05T05:06:31.733Z,9.57
2017-02-05T05:07:41.701Z,9.63
2017-02-05T05:08:51.647Z,9.59
2017-02-05T05:10:01.604Z,9.64
2017-02-05T05:11:12.350Z,9.72
2017-02-05T05:12:22.700Z,9.71
2017-02-05T05:13:33.064Z,9.74
2017-02-05T05:14:43.027Z,9.75
2017-02-05T05:15:53.380Z,9.85
2017-02-05T05:17:03.331Z,9.88
2017-02-05T05:18:13.287Z,9.96
2017-02-05T05:19:24.032Z,9.84
2017-02-05T05:20:34.804Z,9.82
2017-02-05T05:21:45.562Z,9.81
2017-02-05T05:22:56.308Z,9.81
2017-02-05T05:24:07.059Z,9.89
2017-02-05T05:25:17.825Z,9.88
2017-02-05T05:26:28.170Z,9.81
2017-02-05T05:27:38.525Z,9.85
2017-02-05T05:28:48.955Z,9.74
2017-02-05T05:29:59.706Z,9.82
2017-02-05T05:31:10.058Z,9.85
2017-02-05T05:32:20.408Z,9.78
2017-02-05T05:33:30.765Z,9.89
2017-02-05T05:34:41.518Z,9.77
2017-02-05T05:35:52.267Z,9.72
2017-02-05T05:37:03.015Z,9.63
2017-02-05T05:38:13.770Z,9.67
2017-02-05T05:39:24.141Z,9.66
2017-02-05T05:40:34.890Z,9.64
2017-02-05T05:41:45.625Z,9.63
2017-02-05T05:42:55.992Z,9.7
2017-02-05T05:44:06.748Z,9.74
2017-02-05T05:45:17.512Z,9.74
2017-02-05T05:46:27.877Z,9.75
2017-02-05T05:47:38.633Z,9.75
2017-02-05T05:48:48.590Z,9.78
2017-02-05T05:49:58.942Z,9.63
2017-02-05T05:51:09.699Z,9.64
2017-02-05T05:52:20.455Z,9.62
2017-02-05T05:53:31.199Z,9.7
2017-02-05T05:54:41.151Z,9.63
2017-02-05T05:55:52.136Z,9.72
2017-02-05T05:57:02.892Z,9.77
2017-02-05T05:58:12.453Z,9.75
2017-02-05T05:59:22.421Z,9.77
2017-02-05T06:00:32.393Z,9.8
2017-02-05T06:01:43.125Z,9.7
2017-02-05T06:02:53.477Z,9.67
2017-02-05T06:04:04.210Z,9.74
2017-02-05T06:05:14.552Z,9.72
2017-02-05T06:06:25.295Z,9.71
2017-02-05T06:07:36.038Z,9.8
2017-02-05T06:08:46.002Z,9.71
2017-02-05T06:09:56.745Z,9.63
2017-02-05T06:11:07.103Z,9.67
2017-02-05T06:12:17.073Z,9.62
2017-02-05T06:13:27.434Z,9.59
2017-02-05T06:14:37.790Z,9.59
2017-02-05T06:15:48.540Z,9.62
2017-02-05T06:16:59.289Z,9.57
2017-02-05T06:18:09.659Z,9.56
2017-02-05T06:19:20.454Z,9.6
2017-02-05T06:20:30.797Z,9.57
2017-02-05T06:21:41.747Z,9.52
2017-02-05T06:22:52.495Z,9.48
2017-02-05T06:24:02.845Z,9.56
2017-02-05T06:25:12.836Z,9.47
2017-02-05T06:26:22.799Z,9.56
2017-02-05T06:27:32.750Z,9.47
2017-02-05T06:28:43.499Z,9.5
2017-02-05T06:29:53.849Z,9.56
2017-02-05T06:31:03.810Z,9.5
2017-02-05T06:32:14.161Z,9.55
2017-02-05T06:33:24.921Z,9.48
2017-02-05T06:34:35.691Z,9.52
2017-02-05T06:35:46.292Z,9.56
2017-02-05T06:36:56.648Z,9.59
2017-02-05T06:38:07.015Z,9.56
2017-02-05T06:39:17.378Z,9.52
2017-02-05T06:40:27.734Z,9.53
2017-02-05T06:41:38.084Z,9.5
2017-02-05T06:42:48.826Z,9.55
2017-02-05T06:43:59.583Z,9.55
2017-02-05T06:45:10.335Z,9.5
2017-02-05T06:46:21.079Z,9.48
2017-02-05T06:47:31.039Z,9.57
2017-02-05T06:48:41.409Z,9.57
2017-02-05T06:49:51.376Z,9.56
2017-02-05T06:51:02.132Z,9.56
2017-02-05T06:52:12.886Z,9.63
2017-02-05T06:53:23.260Z,9.67
2017-02-05T06:54:33.625Z,9.64
2017-02-05T06:55:44.210Z,9.67
2017-02-05T06:56:54.570Z,9.63
2017-02-05T06:58:04.938Z,9.66
2017-02-05T06:59:15.284Z,9.63
2017-02-05T07:00:26.060Z,9.64
2017-02-05T07:01:36.409Z,9.67
2017-02-05T07:02:46.372Z,9.64
2017-02-05T07:03:56.339Z,9.63
2017-02-05T07:05:07.092Z,9.7
2017-02-05T07:06:17.840Z,9.67
2017-02-05T07:07:27.402Z,9.75
2017-02-05T07:08:37.748Z,9.85
2017-02-05T07:09:48.539Z,9.84
2017-02-05T07:10:58.526Z,9.95
2017-02-05T07:12:08.885Z,9.96
2017-02-05T07:13:19.644Z,10.03
2017-02-05T07:14:29.610Z,10.02
2017-02-05T07:15:40.358Z,10.17
2017-02-05T07:16:51.105Z,10.25
2017-02-05T07:18:01.886Z,10.28
2017-02-05T07:19:12.642Z,10.28
2017-02-05T07:20:23.384Z,10.35
2017-02-05T07:21:33.742Z,10.42
2017-02-05T07:22:44.098Z,10.51
2017-02-05T07:23:54.464Z,10.52
2017-02-05T07:25:04.075Z,10.63
2017-02-05T07:26:14.823Z,10.65
2017-02-05T07:27:25.188Z,10.72
2017-02-05T07:28:35.946Z,10.76
2017-02-05T07:29:46.308Z,10.84
2017-02-05T07:30:57.065Z,10.85
2017-02-05T07:32:07.872Z,10.9
2017-02-05T07:33:18.249Z,10.85
2017-02-05T07:34:28.989Z,10.97
2017-02-05T07:35:39.392Z,10.95
2017-02-05T07:36:49.739Z,10.97
2017-02-05T07:38:00.098Z,11.08
2017-02-05T07:39:10.463Z,11.15
2017-02-05T07:40:21.221Z,11.23
2017-02-05T07:41:31.179Z,11.21
2017-02-05T07:42:41.537Z,11.23
2017-02-05T07:43:51.895Z,11.2
2017-02-05T07:45:01.847Z,11.41
2017-02-05T07:46:11.433Z,11.41
2017-02-05T07:47:22.189Z,11.46
2017-02-05T07:48:32.166Z,11.49
2017-02-05T07:49:42.518Z,11.53
2017-02-05T07:50:53.264Z,11.67
2017-02-05T07:52:04.024Z,11.67
2017-02-05T07:53:14.588Z,11.76
2017-02-05T07:54:24.165Z,11.81
2017-02-05T07:55:34.519Z,11.78
2017-02-05T07:56:44.875Z,11.81
2017-02-05T07:57:55.250Z,11.94
2017-02-05T07:59:05.649Z,11.95
2017-02-05T08:00:15.617Z,11.97
2017-02-05T08:01:26.004Z,12.08
2017-02-05T08:02:36.379Z,12.19
2017-02-05T08:03:47.132Z,12.2
2017-02-05T08:04:57.879Z,12.26
2017-02-05T08:06:08.229Z,12.36
2017-02-05T08:07:18.596Z,12.48
2017-02-05T08:08:29.376Z,12.58
2017-02-05T08:09:39.734Z,12.58
2017-02-05T08:10:50.101Z,12.61
2017-02-05T08:12:00.850Z,12.66
2017-02-05T08:13:11.215Z,12.76
2017-02-05T08:14:21.196Z,12.84
2017-02-05T08:15:31.560Z,12.89
2017-02-05T08:16:42.332Z,12.84
2017-02-05T08:17:52.695Z,12.91
2017-02-05T08:19:03.456Z,12.88
2017-02-05T08:20:13.411Z,13.01
2017-02-05T08:21:23.779Z,13.13
2017-02-05T08:22:34.532Z,13.14
2017-02-05T08:23:44.913Z,13.2
2017-02-05T08:24:55.286Z,13.29
2017-02-05T08:26:05.257Z,13.35
2017-02-05T08:27:15.611Z,13.5
2017-02-05T08:28:26.369Z,13.5
2017-02-05T08:29:36.335Z,13.48
2017-02-05T08:30:46.701Z,13.57
2017-02-05T08:31:57.444Z,13.62
2017-02-05T08:33:07.419Z,13.63
2017-02-05T08:34:18.182Z,13.7
2017-02-05T08:35:28.939Z,13.55
2017-02-05T08:36:39.688Z,13.63
2017-02-05T08:37:50.441Z,13.62
2017-02-05T08:39:00.792Z,13.73
2017-02-05T08:40:11.553Z,13.72
2017-02-05T08:41:21.531Z,13.81
2017-02-05T08:42:31.527Z,13.84
2017-02-05T08:43:42.302Z,13.84
2017-02-05T08:44:52.674Z,13.93
2017-02-05T08:46:03.018Z,13.93
2017-02-05T08:47:12.602Z,14.02
2017-02-05T08:48:23.355Z,13.91
2017-02-05T08:49:33.759Z,13.99
2017-02-05T08:50:44.523Z,14.08
2017-02-05T08:51:54.876Z,14.12
2017-02-05T08:53:05.635Z,14.19
2017-02-05T08:54:16.000Z,14.19
2017-02-05T08:55:25.973Z,14.23
2017-02-05T08:56:36.716Z,14.28
2017-02-05T08:57:47.474Z,14.31
2017-02-05T08:58:58.242Z,14.42
2017-02-05T09:00:08.986Z,14.46
2017-02-05T09:01:19.744Z,14.49
2017-02-05T09:02:30.500Z,14.42
2017-02-05T09:03:41.298Z,14.48
2017-02-05T09:04:51.644Z,14.6
2017-02-05T09:06:01.605Z,14.57
2017-02-05T09:07:11.567Z,14.67
2017-02-05T09:08:22.328Z,14.63
2017-02-05T09:09:32.288Z,14.66
2017-02-05T09:10:42.650Z,14.69
2017-02-05T09:11:53.013Z,14.7
2017-02-05T09:13:03.035Z,14.67
2017-02-05T09:14:13.795Z,14.77
2017-02-05T09:15:24.558Z,14.85
2017-02-05T09:16:34.943Z,14.75
2017-02-05T09:17:44.908Z,14.86
2017-02-05T09:18:55.680Z,14.93
2017-02-05T09:20:06.440Z,14.9
2017-02-05T09:21:16.821Z,14.86
2017-02-05T09:22:27.187Z,15.07
2017-02-05T09:23:37.541Z,15.08
2017-02-05T09:24:47.902Z,15.22
2017-02-05T09:25:58.272Z,15.33
2017-02-05T09:27:09.039Z,15.31
2017-02-05T09:28:19.403Z,15.43
2017-02-05T09:29:30.234Z,15.47
2017-02-05T09:30:40.601Z,15.49
2017-02-05T09:31:50.566Z,15.6
2017-02-05T09:33:00.538Z,15.6
2017-02-05T09:34:11.292Z,15.59
2017-02-05T09:35:22.058Z,15.53
2017-02-05T09:36:32.639Z,15.62
2017-02-05T09:37:43.395Z,15.67
2017-02-05T09:38:53.755Z,15.55
2017-02-05T09:40:04.140Z,15.63
2017-02-05T09:41:14.897Z,15.6
2017-02-05T09:42:25.652Z,15.67
2017-02-05T09:43:35.610Z,15.73
2017-02-05T09:44:46.375Z,15.71
2017-02-05T09:45:56.757Z,15.75
2017-02-05T09:47:07.504Z,15.78
2017-02-05T09:48:17.864Z,15.84
2017-02-05T09:49:28.623Z,15.8
2017-02-05T09:50:39.365Z,15.93
2017-02-05T09:51:50.135Z,15.92
2017-02-05T09:53:00.510Z,15.95
2017-02-05T09:54:11.265Z,15.92
2017-02-05T09:55:22.026Z,15.95
2017-02-05T09:56:32.002Z,15.99
2017-02-05T09:57:42.368Z,15.89
2017-02-05T09:58:52.751Z,15.86
2017-02-05T10:00:03.499Z,15.86
2017-02-05T10:01:13.921Z,16.02
2017-02-05T10:02:23.896Z,15.96
2017-02-05T10:03:34.260Z,16.04
2017-02-05T10:04:44.234Z,16.02
2017-02-05T10:05:54.594Z,16.04
2017-02-05T10:07:04.948Z,16.06
2017-02-05T10:08:15.308Z,16.08
2017-02-05T10:09:26.069Z,16.17
2017-02-05T10:10:36.433Z,16.21
2017-02-05T10:11:47.195Z,16.27
2017-02-05T10:12:57.581Z,16.25
2017-02-05T10:14:08.342Z,16.36
2017-02-05T10:15:18.698Z,16.3
2017-02-05T10:16:29.456Z,16.3
2017-02-05T10:17:40.267Z,16.27
2017-02-05T10:18:51.029Z,16.36
2017-02-05T10:20:01.804Z,16.29
2017-02-05T10:21:12.585Z,16.29
2017-02-05T10:22:23.350Z,16.29
2017-02-05T10:23:34.103Z,16.34
2017-02-05T10:24:44.071Z,16.44
2017-02-05T10:25:54.817Z,16.37
2017-02-05T10:27:05.172Z,16.37
2017-02-05T10:28:15.530Z,16.4
2017-02-05T10:29:26.289Z,16.34
2017-02-05T10:30:37.051Z,16.47
2017-02-05T10:31:47.011Z,16.34
2017-02-05T10:32:57.405Z,16.37
2017-02-05T10:34:07.774Z,16.42
2017-02-05T10:35:18.157Z,16.47
2017-02-05T10:36:28.729Z,16.36
2017-02-05T10:37:39.492Z,16.36
2017-02-05T10:38:49.460Z,16.42
2017-02-05T10:40:00.200Z,16.37
2017-02-05T10:41:10.175Z,16.4
2017-02-05T10:42:20.963Z,16.49
2017-02-05T10:43:31.318Z,16.52
2017-02-05T10:44:42.076Z,16.58
2017-02-05T10:45:52.046Z,16.59
2017-02-05T10:47:02.425Z,16.59
2017-02-05T10:48:12.019Z,16.63
2017-02-05T10:49:22.788Z,16.69
2017-02-05T10:50:33.158Z,16.7
2017-02-05T10:51:43.912Z,16.69
2017-02-05T10:52:54.287Z,16.88
2017-02-05T10:54:04.637Z,16.87
2017-02-05T10:55:15.399Z,16.94
2017-02-05T10:56:26.163Z,16.95
2017-02-05T10:57:36.962Z,16.92
2017-02-05T10:58:47.331Z,17.05
2017-02-05T10:59:58.107Z,17.07
2017-02-05T11:01:08.886Z,17.17
2017-02-05T11:02:19.268Z,17.1
2017-02-05T11:03:29.658Z,17.2
2017-02-05T11:04:40.435Z,17.17
2017-02-05T11:05:50.406Z,17.09
2017-02-05T11:07:00.385Z,17.1
2017-02-05T11:08:11.182Z,17.12
2017-02-05T11:09:21.548Z,17.06
2017-02-05T11:10:31.934Z,17.22
2017-02-05T11:11:42.317Z,17.21
2017-02-05T11:12:52.698Z,17.28
2017-02-05T11:14:02.677Z,17.35
2017-02-05T11:15:13.447Z,17.42
2017-02-05T11:16:23.846Z,17.43
2017-02-05T11:17:34.208Z,17.5
2017-02-05T11:18:44.972Z,17.5
2017-02-05T11:19:55.345Z,17.66
2017-02-05T11:21:05.718Z,17.63
2017-02-05T11:22:16.092Z,17.69
2017-02-05T11:23:26.463Z,17.63
2017-02-05T11:24:36.848Z,17.69
2017-02-05T11:25:47.607Z,17.69
2017-02-05T11:26:57.586Z,17.76
2017-02-05T11:28:07.622Z,17.81
2017-02-05T11:29:17.997Z,17.79
2017-02-05T11:30:28.385Z,17.79
2017-02-05T11:31:37.584Z,17.86
2017-02-05T11:32:48.352Z,17.79
2017-02-05T11:33:58.727Z,17.79
2017-02-05T11:35:09.474Z,17.74
2017-02-05T11:36:19.835Z,17.76
2017-02-05T11:37:30.804Z,17.63
2017-02-05T11:38:41.581Z,17.74
2017-02-05T11:39:51.162Z,17.8
2017-02-05T11:41:01.915Z,17.77
2017-02-05T11:42:12.283Z,17.84
2017-02-05T11:43:23.049Z,17.83
2017-02-05T11:44:33.463Z,17.86
2017-02-05T11:45:43.846Z,17.86
2017-02-05T11:46:54.214Z,17.99
2017-02-05T11:48:04.576Z,18.08
2017-02-05T11:49:15.003Z,18.01
2017-02-05T11:50:25.402Z,18.06
2017-02-05T11:51:35.432Z,18.08
2017-02-05T11:52:46.207Z,18.11
2017-02-05T11:53:56.575Z,18.05
2017-02-05T11:55:07.336Z,17.99
2017-02-05T11:56:17.718Z,18.01
2017-02-05T11:57:28.083Z,17.92
2017-02-05T11:58:38.857Z,17.98
2017-02-05T11:59:49.239Z,18.01
2017-02-05T12:01:00.005Z,18.13
2017-02-05T12:02:10.775Z,18.21
2017-02-05T12:03:21.141Z,18.16
2017-02-05T12:04:31.909Z,18.26
2017-02-05T12:05:42.316Z,18.24
2017-02-05T12:06:52.696Z,18.31
2017-02-05T12:08:03.076Z,18.44
2017-02-05T12:09:13.851Z,18.49
2017-02-05T12:10:24.602Z,18.53
2017-02-05T12:11:35.402Z,18.5
2017-02-05T12:12:45.792Z,18.56
2017-02-05T12:13:56.560Z,18.59
2017-02-05T12:15:07.385Z,18.66
2017-02-05T12:16:18.158Z,18.66
2017-02-05T12:17:28.524Z,18.66
2017-02-05T12:18:38.113Z,18.72
2017-02-05T12:19:48.881Z,18.69
2017-02-05T12:20:59.303Z,18.78
2017-02-05T12:22:10.088Z,18.86
2017-02-05T12:23:20.472Z,18.94
2017-02-05T12:24:31.288Z,19.12
2017-02-05T12:25:41.260Z,19.23
2017-02-05T12:26:52.011Z,19.3
2017-02-05T12:28:02.385Z,19.34
2017-02-05T12:29:13.187Z,19.37
2017-02-05T12:30:23.937Z,19.4
2017-02-05T12:31:34.304Z,19.45
2017-02-05T12:32:43.896Z,19.3
2017-02-05T12:33:54.265Z,19.12
2017-02-05T12:35:04.647Z,18.89
2017-02-05T12:36:15.018Z,18.9
2017-02-05T12:37:25.765Z,18.86
2017-02-05T12:38:36.523Z,18.47
2017-02-05T12:39:46.926Z,18.49
2017-02-05T12:40:57.282Z,17.92
2017-02-05T12:42:07.640Z,17.79
2017-02-05T12:43:17.611Z,17.4
2017-02-05T12:44:27.962Z,17.54
2017-02-05T12:45:38.326Z,17.69
2017-02-05T12:46:49.089Z,17.86
2017-02-05T12:47:59.867Z,18.03
2017-02-05T12:49:09.856Z,18.08
2017-02-05T12:50:20.603Z,18.17
2017-02-05T12:51:30.964Z,18.03
2017-02-05T12:52:40.932Z,17.77
2017-02-05T12:53:51.698Z,17.49
2017-02-05T12:55:02.089Z,17.74
2017-02-05T12:56:12.475Z,17.81
2017-02-05T12:57:22.448Z,17.81
2017-02-05T12:58:33.190Z,17.81
2017-02-05T12:59:43.947Z,17.87
2017-02-05T13:00:54.308Z,17.83
2017-02-05T13:02:05.076Z,17.73
2017-02-05T13:03:15.439Z,17.69
2017-02-05T13:04:25.403Z,17.81
2017-02-05T13:05:36.186Z,17.84
2017-02-05T13:06:46.947Z,17.84
2017-02-05T13:07:57.308Z,17.71
2017-02-05T13:09:07.675Z,17.73
2017-02-05T13:10:18.429Z,17.42
2017-02-05T13:11:29.196Z,17.3
2017-02-05T13:12:39.951Z,17.07
2017-02-05T13:13:50.723Z,17.05
2017-02-05T13:15:00.291Z,16.82
2017-02-05T13:16:10.657Z,16.72
2017-02-05T13:17:21.413Z,16.67
2017-02-05T13:18:32.183Z,16.77
2017-02-05T13:19:42.963Z,16.91
2017-02-05T13:20:53.349Z,16.66
2017-02-05T13:22:03.702Z,16.47
2017-02-05T13:23:13.678Z,16.32
2017-02-05T13:24:24.062Z,16.37
2017-02-05T13:25:34.105Z,16.51
2017-02-05T13:26:44.470Z,16.52
2017-02-05T13:27:55.240Z,16.72
2017-02-05T13:29:06.014Z,16.63
2017-02-05T13:30:16.380Z,16.42
2017-02-05T13:31:25.975Z,16.16
2017-02-05T13:32:36.722Z,15.75
2017-02-05T13:33:47.472Z,15.68
2017-02-05T13:34:57.430Z,15.65
2017-02-05T13:36:08.195Z,15.6
2017-02-05T13:37:18.587Z,15.67
2017-02-05T13:38:28.956Z,15.71
2017-02-05T13:39:39.726Z,15.93
2017-02-05T13:40:49.712Z,16.1
2017-02-05T13:41:59.690Z,16.26
2017-02-05T13:43:10.058Z,16.26
2017-02-05T13:44:19.658Z,15.88
2017-02-05T13:45:30.015Z,15.95
2017-02-05T13:46:40.767Z,15.88
2017-02-05T13:47:51.547Z,15.81
2017-02-05T13:49:01.938Z,15.75
2017-02-05T13:50:12.705Z,15.74
2017-02-05T13:51:23.114Z,15.86
2017-02-05T13:52:32.719Z,15.83
2017-02-05T13:53:42.698Z,15.73
2017-02-05T13:54:53.465Z,15.6
2017-02-05T13:56:04.226Z,15.49
2017-02-05T13:57:15.001Z,15.33
2017-02-05T13:58:25.780Z,15.23
2017-02-05T13:59:36.540Z,15.12
2017-02-05T14:00:47.298Z,15.18
2017-02-05T14:01:58.067Z,14.97
2017-02-05T14:03:08.438Z,14.9
2017-02-05T14:04:19.207Z,14.79
2017-02-05T14:05:29.970Z,14.66
2017-02-05T14:06:40.797Z,14.6
2017-02-05T14:07:50.763Z,14.49
2017-02-05T14:09:01.123Z,14.41
2017-02-05T14:10:11.898Z,14.26
2017-02-05T14:11:22.664Z,14.15
2017-02-05T14:12:33.049Z,13.94
2017-02-05T14:13:43.815Z,13.9
2017-02-05T14:14:54.210Z,13.88
2017-02-05T14:16:04.603Z,13.88
2017-02-05T14:17:14.959Z,13.79
2017-02-05T14:18:25.361Z,13.75
2017-02-05T14:19:35.331Z,13.72
2017-02-05T14:20:45.701Z,13.73
2017-02-05T14:21:56.488Z,13.6
2017-02-05T14:23:07.239Z,13.57
2017-02-05T14:24:18.056Z,13.63
2017-02-05T14:25:28.831Z,13.54
2017-02-05T14:26:39.219Z,13.55
2017-02-05T14:27:49.193Z,13.48
2017-02-05T14:28:59.974Z,13.36
2017-02-05T14:30:10.729Z,13.32
2017-02-05T14:31:21.106Z,13.31
2017-02-05T14:32:31.490Z,13.14
2017-02-05T14:33:42.245Z,13.17
2017-02-05T14:34:52.226Z,13.1
2017-02-05T14:36:02.984Z,13.09
2017-02-05T14:37:12.940Z,13.03
2017-02-05T14:38:23.703Z,12.99
2017-02-05T14:39:34.058Z,12.98
2017-02-05T14:40:44.459Z,12.91
2017-02-05T14:41:55.311Z,12.92
2017-02-05T14:43:05.682Z,12.89
2017-02-05T14:44:16.459Z,12.88
2017-02-05T14:45:27.231Z,12.83
2017-02-05T14:46:38.017Z,12.8
2017-02-05T14:47:48.779Z,12.83
2017-02-05T14:48:59.143Z,12.66
2017-02-05T14:50:09.510Z,12.66
2017-02-05T14:51:20.299Z,12.65
2017-02-05T14:52:31.074Z,12.61
2017-02-05T14:53:41.437Z,12.53
2017-02-05T14:54:51.810Z,12.56
2017-02-05T14:56:02.563Z,12.48
2017-02-05T14:57:12.938Z,12.44
2017-02-05T14:58:23.313Z,12.38
2017-02-05T14:59:33.708Z,12.36
2017-02-05T15:00:44.079Z,12.31
2017-02-05T15:01:54.836Z,12.22
2017-02-05T15:03:05.208Z,12.18
2017-02-05T15:04:15.569Z,12.16
2017-02-05T15:05:25.929Z,12.08
2017-02-05T15:06:36.686Z,12.04
2017-02-05T15:07:46.642Z,11.95
2017-02-05T15:08:57.015Z,11.95
2017-02-05T15:10:07.007Z,11.85
2017-02-05T15:11:16.981Z,11.82
2017-02-05T15:12:27.735Z,11.76
2017-02-05T15:13:37.717Z,11.76
2017-02-05T15:14:47.695Z,11.71
2017-02-05T15:15:57.282Z,11.67
2017-02-05T15:17:08.049Z,11.7
2017-02-05T15:18:18.414Z,11.6
2017-02-05T15:19:28.776Z,11.67
2017-02-05T15:20:39.143Z,11.6
2017-02-05T15:21:49.114Z,11.56
2017-02-05T15:22:59.885Z,11.48
2017-02-05T15:24:10.253Z,11.46
2017-02-05T15:25:20.991Z,11.48
2017-02-05T15:26:31.754Z,11.43
2017-02-05T15:27:42.518Z,11.38
2017-02-05T15:28:52.888Z,11.41
2017-02-05T15:30:03.249Z,11.43
2017-02-05T15:31:14.033Z,11.27
2017-02-05T15:32:24.400Z,11.23
2017-02-05T15:33:35.151Z,11.21
2017-02-05T15:34:45.991Z,11.15
2017-02-05T15:35:56.343Z,11.13
2017-02-05T15:37:05.525Z,11.06
2017-02-05T15:38:15.482Z,11.05
2017-02-05T15:39:25.464Z,10.97
2017-02-05T15:40:35.850Z,10.92
2017-02-05T15:41:45.829Z,10.97
2017-02-05T15:42:55.797Z,10.85
2017-02-05T15:44:05.805Z,10.85
2017-02-05T15:45:16.174Z,10.77
2017-02-05T15:46:26.934Z,10.73
2017-02-05T15:47:36.898Z,10.79
2017-02-05T15:48:47.263Z,10.73
2017-02-05T15:49:56.853Z,10.66
2017-02-05T15:51:06.414Z,10.55
2017-02-05T15:52:16.374Z,10.46
2017-02-05T15:53:26.730Z,10.57